sensor_id;sensor_type;location;lat;lon;timestamp;temperature;humidity
52058;DHT22;38063;53.210;6.504;2023-04-23T00:00:05;8.00;99.90
52058;DHT22;38063;53.210;6.504;2023-04-23T00:02:32;8.00;99.90
52058;DHT22;38063;53.210;6.504;2023-04-23T00:05:02;8.00;99.90
52058;DHT22;38063;53.210;6.504;2023-04-23T00:07:32;7.90;99.90
52058;DHT22;38063;53.210;6.504;2023-04-23T00:09:59;7.90;99.90
52058;DHT22;38063;53.210;6.504;2023-04-23T00:12:28;7.80;99.90
52058;DHT22;38063;53.210;6.504;2023-04-23T00:14:55;7.80;99.90
52058;DHT22;38063;53.210;6.504;2023-04-23T00:17:20;7.70;99.90
52058;DHT22;38063;53.210;6.504;2023-04-23T00:19:46;7.70;99.90
52058;DHT22;38063;53.210;6.504;2023-04-23T00:22:12;7.60;99.90
52058;DHT22;38063;53.210;6.504;2023-04-23T00:24:39;7.60;99.90
52058;DHT22;38063;53.210;6.504;2023-04-23T00:27:05;7.60;99.90
52058;DHT22;38063;53.210;6.504;2023-04-23T00:29:31;7.60;99.90
52058;DHT22;38063;53.210;6.504;2023-04-23T00:31:57;7.60;99.90
52058;DHT22;38063;53.210;6.504;2023-04-23T00:34:22;7.60;99.90
52058;DHT22;38063;53.210;6.504;2023-04-23T00:36:48;7.70;99.90
52058;DHT22;38063;53.210;6.504;2023-04-23T00:39:14;7.60;99.90
52058;DHT22;38063;53.210;6.504;2023-04-23T00:41:40;7.60;99.90
52058;DHT22;38063;53.210;6.504;2023-04-23T00:44:07;8.00;99.90
52058;DHT22;38063;53.210;6.504;2023-04-23T00:46:34;7.60;99.90
52058;DHT22;38063;53.210;6.504;2023-04-23T00:49:01;7.60;99.90
52058;DHT22;38063;53.210;6.504;2023-04-23T00:51:30;7.60;99.90
52058;DHT22;38063;53.210;6.504;2023-04-23T00:53:59;7.60;99.90
52058;DHT22;38063;53.210;6.504;2023-04-23T00:56:26;7.50;99.90
52058;DHT22;38063;53.210;6.504;2023-04-23T00:58:52;7.50;99.90
52058;DHT22;38063;53.210;6.504;2023-04-23T01:01:19;7.50;99.90
52058;DHT22;38063;53.210;6.504;2023-04-23T01:03:48;7.60;99.90
52058;DHT22;38063;53.210;6.504;2023-04-23T01:06:15;7.50;99.90
52058;DHT22;38063;53.210;6.504;2023-04-23T01:08:42;7.60;99.90
52058;DHT22;38063;53.210;6.504;2023-04-23T01:11:08;7.80;99.90
52058;DHT22;38063;53.210;6.504;2023-04-23T01:13:34;8.70;99.90
52058;DHT22;38063;53.210;6.504;2023-04-23T01:16:00;7.50;99.90
52058;DHT22;38063;53.210;6.504;2023-04-23T01:18:27;7.50;99.90
52058;DHT22;38063;53.210;6.504;2023-04-23T01:20:54;7.50;99.90
52058;DHT22;38063;53.210;6.504;2023-04-23T01:23:20;7.50;99.90
52058;DHT22;38063;53.210;6.504;2023-04-23T01:25:46;7.50;99.90
52058;DHT22;38063;53.210;6.504;2023-04-23T01:28:12;7.50;99.90
52058;DHT22;38063;53.210;6.504;2023-04-23T01:30:38;7.50;99.90
52058;DHT22;38063;53.210;6.504;2023-04-23T01:33:04;7.50;99.90
52058;DHT22;38063;53.210;6.504;2023-04-23T01:35:31;7.50;99.90
52058;DHT22;38063;53.210;6.504;2023-04-23T01:37:58;7.40;99.90
52058;DHT22;38063;53.210;6.504;2023-04-23T01:40:26;7.40;99.90
52058;DHT22;38063;53.210;6.504;2023-04-23T01:42:52;7.80;99.90
52058;DHT22;38063;53.210;6.504;2023-04-23T01:45:18;7.40;99.90
52058;DHT22;38063;53.210;6.504;2023-04-23T01:47:45;7.40;99.90
52058;DHT22;38063;53.210;6.504;2023-04-23T01:50:12;7.40;99.90
52058;DHT22;38063;53.210;6.504;2023-04-23T01:52:37;7.30;99.90
52058;DHT22;38063;53.210;6.504;2023-04-23T01:55:03;7.30;99.90
52058;DHT22;38063;53.210;6.504;2023-04-23T01:57:29;7.30;99.90
52058;DHT22;38063;53.210;6.504;2023-04-23T02:00:09;7.30;99.90
52058;DHT22;38063;53.210;6.504;2023-04-23T02:02:37;7.30;99.90
52058;DHT22;38063;53.210;6.504;2023-04-23T02:05:03;7.20;99.90
52058;DHT22;38063;53.210;6.504;2023-04-23T02:07:33;7.20;99.90
52058;DHT22;38063;53.210;6.504;2023-04-23T02:09:59;7.20;99.90
52058;DHT22;38063;53.210;6.504;2023-04-23T02:12:24;7.40;99.90
52058;DHT22;38063;53.210;6.504;2023-04-23T02:14:51;7.10;99.90
52058;DHT22;38063;53.210;6.504;2023-04-23T02:17:19;7.10;99.90
52058;DHT22;38063;53.210;6.504;2023-04-23T02:19:45;7.10;99.90
52058;DHT22;38063;53.210;6.504;2023-04-23T02:22:10;7.10;99.90
52058;DHT22;38063;53.210;6.504;2023-04-23T02:24:36;7.10;99.90
52058;DHT22;38063;53.210;6.504;2023-04-23T02:27:03;7.10;99.90
52058;DHT22;38063;53.210;6.504;2023-04-23T02:29:29;7.00;99.90
52058;DHT22;38063;53.210;6.504;2023-04-23T02:31:55;7.00;99.90
52058;DHT22;38063;53.210;6.504;2023-04-23T02:34:20;7.00;99.90
52058;DHT22;38063;53.210;6.504;2023-04-23T02:36:46;7.00;99.90
52058;DHT22;38063;53.210;6.504;2023-04-23T02:39:11;7.00;99.90
52058;DHT22;38063;53.210;6.504;2023-04-23T02:41:37;6.90;99.90
52058;DHT22;38063;53.210;6.504;2023-04-23T02:44:03;7.00;99.90
52058;DHT22;38063;53.210;6.504;2023-04-23T02:46:28;7.10;99.90
52058;DHT22;38063;53.210;6.504;2023-04-23T02:48:56;6.90;99.90
52058;DHT22;38063;53.210;6.504;2023-04-23T02:51:21;6.90;99.90
52058;DHT22;38063;53.210;6.504;2023-04-23T02:53:47;6.80;99.90
52058;DHT22;38063;53.210;6.504;2023-04-23T02:56:13;6.80;99.90
52058;DHT22;38063;53.210;6.504;2023-04-23T02:58:39;6.80;99.90
52058;DHT22;38063;53.210;6.504;2023-04-23T03:01:05;6.90;99.90
52058;DHT22;38063;53.210;6.504;2023-04-23T03:03:32;6.80;99.90
52058;DHT22;38063;53.210;6.504;2023-04-23T03:05:59;6.80;99.90
52058;DHT22;38063;53.210;6.504;2023-04-23T03:08:25;6.80;99.90
52058;DHT22;38063;53.210;6.504;2023-04-23T03:10:50;6.80;99.90
52058;DHT22;38063;53.210;6.504;2023-04-23T03:13:16;7.10;99.90
52058;DHT22;38063;53.210;6.504;2023-04-23T03:15:42;6.80;99.90
52058;DHT22;38063;53.210;6.504;2023-04-23T03:18:08;6.80;99.90
52058;DHT22;38063;53.210;6.504;2023-04-23T03:20:36;7.20;99.90
52058;DHT22;38063;53.210;6.504;2023-04-23T03:23:02;7.10;99.90
52058;DHT22;38063;53.210;6.504;2023-04-23T03:25:31;7.00;99.90
52058;DHT22;38063;53.210;6.504;2023-04-23T03:27:57;6.80;99.90
52058;DHT22;38063;53.210;6.504;2023-04-23T03:30:23;6.80;99.90
52058;DHT22;38063;53.210;6.504;2023-04-23T03:32:49;6.80;99.90
52058;DHT22;38063;53.210;6.504;2023-04-23T03:35:15;6.80;99.90
52058;DHT22;38063;53.210;6.504;2023-04-23T03:37:41;6.80;99.90
52058;DHT22;38063;53.210;6.504;2023-04-23T03:40:07;6.90;99.90
52058;DHT22;38063;53.210;6.504;2023-04-23T03:42:33;6.80;99.90
52058;DHT22;38063;53.210;6.504;2023-04-23T03:44:59;6.80;99.90
52058;DHT22;38063;53.210;6.504;2023-04-23T03:47:25;6.90;99.90
52058;DHT22;38063;53.210;6.504;2023-04-23T03:49:51;6.90;99.90
52058;DHT22;38063;53.210;6.504;2023-04-23T03:52:17;6.90;99.90
52058;DHT22;38063;53.210;6.504;2023-04-23T03:54:43;6.90;99.90
52058;DHT22;38063;53.210;6.504;2023-04-23T03:57:09;6.90;99.90
52058;DHT22;38063;53.210;6.504;2023-04-23T03:59:36;6.90;99.90
52058;DHT22;38063;53.210;6.504;2023-04-23T04:02:02;6.90;99.90
52058;DHT22;38063;53.210;6.504;2023-04-23T04:04:31;6.90;99.90
52058;DHT22;38063;53.210;6.504;2023-04-23T04:06:58;7.00;99.90
52058;DHT22;38063;53.210;6.504;2023-04-23T04:09:25;6.90;99.90
52058;DHT22;38063;53.210;6.504;2023-04-23T04:11:52;6.90;99.90
52058;DHT22;38063;53.210;6.504;2023-04-23T04:14:18;6.90;99.90
52058;DHT22;38063;53.210;6.504;2023-04-23T04:16:44;7.00;99.90
52058;DHT22;38063;53.210;6.504;2023-04-23T04:19:11;6.90;99.90
52058;DHT22;38063;53.210;6.504;2023-04-23T04:21:36;7.00;99.90
52058;DHT22;38063;53.210;6.504;2023-04-23T04:24:02;7.00;99.90
52058;DHT22;38063;53.210;6.504;2023-04-23T04:26:30;7.00;99.90
52058;DHT22;38063;53.210;6.504;2023-04-23T04:28:57;7.50;99.90
52058;DHT22;38063;53.210;6.504;2023-04-23T04:31:24;7.10;99.90
52058;DHT22;38063;53.210;6.504;2023-04-23T04:33:53;7.10;99.90
52058;DHT22;38063;53.210;6.504;2023-04-23T04:36:20;7.10;99.90
52058;DHT22;38063;53.210;6.504;2023-04-23T04:38:45;7.20;99.90
52058;DHT22;38063;53.210;6.504;2023-04-23T04:41:12;7.20;99.90
52058;DHT22;38063;53.210;6.504;2023-04-23T04:43:38;7.20;99.90
52058;DHT22;38063;53.210;6.504;2023-04-23T04:46:04;7.30;99.90
52058;DHT22;38063;53.210;6.504;2023-04-23T04:48:30;7.20;99.90
52058;DHT22;38063;53.210;6.504;2023-04-23T04:50:55;7.30;99.90
52058;DHT22;38063;53.210;6.504;2023-04-23T04:53:22;7.40;99.90
52058;DHT22;38063;53.210;6.504;2023-04-23T04:55:48;7.30;99.90
52058;DHT22;38063;53.210;6.504;2023-04-23T04:58:14;7.40;99.90
52058;DHT22;38063;53.210;6.504;2023-04-23T05:00:39;7.40;99.90
52058;DHT22;38063;53.210;6.504;2023-04-23T05:03:05;7.40;99.90
52058;DHT22;38063;53.210;6.504;2023-04-23T05:05:31;7.40;99.90
52058;DHT22;38063;53.210;6.504;2023-04-23T05:07:57;7.50;99.90
52058;DHT22;38063;53.210;6.504;2023-04-23T05:10:29;7.50;99.90
52058;DHT22;38063;53.210;6.504;2023-04-23T05:12:58;7.50;99.90
52058;DHT22;38063;53.210;6.504;2023-04-23T05:15:25;7.50;99.90
52058;DHT22;38063;53.210;6.504;2023-04-23T05:17:50;7.50;99.90
52058;DHT22;38063;53.210;6.504;2023-04-23T05:20:18;7.50;99.90
52058;DHT22;38063;53.210;6.504;2023-04-23T05:22:44;7.50;99.90
52058;DHT22;38063;53.210;6.504;2023-04-23T05:25:10;7.90;99.90
52058;DHT22;38063;53.210;6.504;2023-04-23T05:27:37;7.60;99.90
52058;DHT22;38063;53.210;6.504;2023-04-23T05:30:04;7.60;99.90
52058;DHT22;38063;53.210;6.504;2023-04-23T05:32:30;7.60;99.90
52058;DHT22;38063;53.210;6.504;2023-04-23T05:34:56;7.60;99.90
52058;DHT22;38063;53.210;6.504;2023-04-23T05:37:22;7.60;99.90
52058;DHT22;38063;53.210;6.504;2023-04-23T05:39:48;7.70;99.90
52058;DHT22;38063;53.210;6.504;2023-04-23T05:42:13;7.70;99.90
52058;DHT22;38063;53.210;6.504;2023-04-23T05:44:39;7.70;99.90
52058;DHT22;38063;53.210;6.504;2023-04-23T05:47:06;7.70;99.90
52058;DHT22;38063;53.210;6.504;2023-04-23T05:49:33;7.70;99.90
52058;DHT22;38063;53.210;6.504;2023-04-23T05:51:59;7.80;99.90
52058;DHT22;38063;53.210;6.504;2023-04-23T05:54:27;7.80;99.90
52058;DHT22;38063;53.210;6.504;2023-04-23T05:56:53;7.80;99.90
52058;DHT22;38063;53.210;6.504;2023-04-23T05:59:18;7.80;99.90
52058;DHT22;38063;53.210;6.504;2023-04-23T06:01:44;7.90;99.90
52058;DHT22;38063;53.210;6.504;2023-04-23T06:04:10;8.00;99.90
52058;DHT22;38063;53.210;6.504;2023-04-23T06:06:36;8.00;99.90
52058;DHT22;38063;53.210;6.504;2023-04-23T06:09:02;8.20;99.90
52058;DHT22;38063;53.210;6.504;2023-04-23T06:11:28;8.10;99.90
52058;DHT22;38063;53.210;6.504;2023-04-23T06:13:56;8.20;99.90
52058;DHT22;38063;53.210;6.504;2023-04-23T06:16:24;8.20;99.90
52058;DHT22;38063;53.210;6.504;2023-04-23T06:18:50;8.30;99.90
52058;DHT22;38063;53.210;6.504;2023-04-23T06:21:15;8.40;99.90
52058;DHT22;38063;53.210;6.504;2023-04-23T06:23:41;8.40;99.90
52058;DHT22;38063;53.210;6.504;2023-04-23T06:26:07;8.60;99.90
52058;DHT22;38063;53.210;6.504;2023-04-23T06:28:33;8.80;99.90
52058;DHT22;38063;53.210;6.504;2023-04-23T06:30:58;9.00;99.90
52058;DHT22;38063;53.210;6.504;2023-04-23T06:33:24;9.30;99.90
52058;DHT22;38063;53.210;6.504;2023-04-23T06:35:50;9.30;99.90
52058;DHT22;38063;53.210;6.504;2023-04-23T06:38:16;9.50;99.90
52058;DHT22;38063;53.210;6.504;2023-04-23T06:40:43;9.60;99.90
52058;DHT22;38063;53.210;6.504;2023-04-23T06:43:09;9.60;99.90
52058;DHT22;38063;53.210;6.504;2023-04-23T06:45:34;9.70;99.90
52058;DHT22;38063;53.210;6.504;2023-04-23T06:48:00;9.80;99.90
52058;DHT22;38063;53.210;6.504;2023-04-23T06:50:26;9.70;99.90
52058;DHT22;38063;53.210;6.504;2023-04-23T06:52:52;9.70;99.90
52058;DHT22;38063;53.210;6.504;2023-04-23T06:55:18;9.70;99.90
52058;DHT22;38063;53.210;6.504;2023-04-23T06:57:45;9.90;99.90
52058;DHT22;38063;53.210;6.504;2023-04-23T07:00:11;10.10;99.90
52058;DHT22;38063;53.210;6.504;2023-04-23T07:02:37;10.30;99.90
52058;DHT22;38063;53.210;6.504;2023-04-23T07:05:03;10.40;99.90
52058;DHT22;38063;53.210;6.504;2023-04-23T07:07:29;10.50;99.90
52058;DHT22;38063;53.210;6.504;2023-04-23T07:09:54;10.60;99.90
52058;DHT22;38063;53.210;6.504;2023-04-23T07:12:20;10.80;99.90
52058;DHT22;38063;53.210;6.504;2023-04-23T07:14:45;11.00;99.90
52058;DHT22;38063;53.210;6.504;2023-04-23T07:17:11;11.20;99.90
52058;DHT22;38063;53.210;6.504;2023-04-23T07:19:37;11.30;99.90
52058;DHT22;38063;53.210;6.504;2023-04-23T07:22:03;11.40;99.90
52058;DHT22;38063;53.210;6.504;2023-04-23T07:24:28;11.50;99.90
52058;DHT22;38063;53.210;6.504;2023-04-23T07:26:54;11.70;99.90
52058;DHT22;38063;53.210;6.504;2023-04-23T07:29:20;11.80;99.90
52058;DHT22;38063;53.210;6.504;2023-04-23T07:31:46;12.00;99.90
52058;DHT22;38063;53.210;6.504;2023-04-23T07:34:12;12.20;99.90
52058;DHT22;38063;53.210;6.504;2023-04-23T07:36:38;12.30;99.90
52058;DHT22;38063;53.210;6.504;2023-04-23T07:39:04;12.40;99.90
52058;DHT22;38063;53.210;6.504;2023-04-23T07:41:31;12.50;99.90
52058;DHT22;38063;53.210;6.504;2023-04-23T07:43:57;12.50;99.90
52058;DHT22;38063;53.210;6.504;2023-04-23T07:46:22;12.50;99.90
52058;DHT22;38063;53.210;6.504;2023-04-23T07:48:48;12.50;99.90
52058;DHT22;38063;53.210;6.504;2023-04-23T07:51:14;12.70;99.90
52058;DHT22;38063;53.210;6.504;2023-04-23T07:53:40;12.80;99.90
52058;DHT22;38063;53.210;6.504;2023-04-23T07:56:06;12.70;99.90
52058;DHT22;38063;53.210;6.504;2023-04-23T07:58:32;12.70;99.90
52058;DHT22;38063;53.210;6.504;2023-04-23T08:00:57;12.80;99.90
52058;DHT22;38063;53.210;6.504;2023-04-23T08:03:23;12.90;99.90
52058;DHT22;38063;53.210;6.504;2023-04-23T08:05:49;13.30;99.90
52058;DHT22;38063;53.210;6.504;2023-04-23T08:08:15;13.50;99.90
52058;DHT22;38063;53.210;6.504;2023-04-23T08:10:40;13.80;99.90
52058;DHT22;38063;53.210;6.504;2023-04-23T08:13:06;14.10;99.90
52058;DHT22;38063;53.210;6.504;2023-04-23T08:15:32;14.30;99.90
52058;DHT22;38063;53.210;6.504;2023-04-23T08:17:58;14.20;99.90
52058;DHT22;38063;53.210;6.504;2023-04-23T08:20:24;14.30;99.90
52058;DHT22;38063;53.210;6.504;2023-04-23T08:22:50;14.50;99.90
52058;DHT22;38063;53.210;6.504;2023-04-23T08:25:18;14.70;99.90
52058;DHT22;38063;53.210;6.504;2023-04-23T08:27:45;14.70;99.90
52058;DHT22;38063;53.210;6.504;2023-04-23T08:30:11;14.90;99.90
52058;DHT22;38063;53.210;6.504;2023-04-23T08:32:38;15.20;99.90
52058;DHT22;38063;53.210;6.504;2023-04-23T08:35:05;15.30;99.90
52058;DHT22;38063;53.210;6.504;2023-04-23T08:37:33;15.50;99.90
52058;DHT22;38063;53.210;6.504;2023-04-23T08:39:59;15.70;99.90
52058;DHT22;38063;53.210;6.504;2023-04-23T08:44:57;16.10;99.90
52058;DHT22;38063;53.210;6.504;2023-04-23T08:47:23;16.20;99.90
52058;DHT22;38063;53.210;6.504;2023-04-23T08:49:53;16.50;99.90
52058;DHT22;38063;53.210;6.504;2023-04-23T08:52:22;16.60;99.90
52058;DHT22;38063;53.210;6.504;2023-04-23T08:54:51;16.80;99.90
52058;DHT22;38063;53.210;6.504;2023-04-23T08:57:18;17.00;99.90
52058;DHT22;38063;53.210;6.504;2023-04-23T08:59:45;17.20;99.90
52058;DHT22;38063;53.210;6.504;2023-04-23T09:02:12;17.40;99.90
52058;DHT22;38063;53.210;6.504;2023-04-23T09:04:40;17.60;99.90
52058;DHT22;38063;53.210;6.504;2023-04-23T09:07:06;17.60;99.90
52058;DHT22;38063;53.210;6.504;2023-04-23T09:09:38;17.70;99.90
52058;DHT22;38063;53.210;6.504;2023-04-23T09:12:06;17.70;99.90
52058;DHT22;38063;53.210;6.504;2023-04-23T09:14:32;17.90;99.90
52058;DHT22;38063;53.210;6.504;2023-04-23T09:17:02;18.10;99.90
52058;DHT22;38063;53.210;6.504;2023-04-23T09:19:28;18.30;99.90
52058;DHT22;38063;53.210;6.504;2023-04-23T09:21:56;18.40;99.90
52058;DHT22;38063;53.210;6.504;2023-04-23T09:24:22;18.50;99.90
52058;DHT22;38063;53.210;6.504;2023-04-23T09:26:50;18.60;99.90
52058;DHT22;38063;53.210;6.504;2023-04-23T09:29:18;18.50;99.90
52058;DHT22;38063;53.210;6.504;2023-04-23T09:31:51;18.50;99.90
52058;DHT22;38063;53.210;6.504;2023-04-23T09:34:19;18.60;99.90
52058;DHT22;38063;53.210;6.504;2023-04-23T09:36:47;18.30;99.90
52058;DHT22;38063;53.210;6.504;2023-04-23T09:39:16;18.10;99.90
52058;DHT22;38063;53.210;6.504;2023-04-23T09:41:43;17.70;99.90
52058;DHT22;38063;53.210;6.504;2023-04-23T09:44:17;17.50;99.90
52058;DHT22;38063;53.210;6.504;2023-04-23T09:46:44;17.50;99.90
52058;DHT22;38063;53.210;6.504;2023-04-23T09:49:11;17.40;99.90
52058;DHT22;38063;53.210;6.504;2023-04-23T09:51:44;17.30;99.90
52058;DHT22;38063;53.210;6.504;2023-04-23T09:54:20;17.50;99.90
52058;DHT22;38063;53.210;6.504;2023-04-23T09:56:52;17.50;99.90
52058;DHT22;38063;53.210;6.504;2023-04-23T09:59:30;17.50;99.90
52058;DHT22;38063;53.210;6.504;2023-04-23T10:01:56;17.50;99.90
52058;DHT22;38063;53.210;6.504;2023-04-23T10:04:25;17.40;99.90
52058;DHT22;38063;53.210;6.504;2023-04-23T10:06:58;17.20;99.90
52058;DHT22;38063;53.210;6.504;2023-04-23T10:09:25;17.20;99.90
52058;DHT22;38063;53.210;6.504;2023-04-23T10:11:56;17.50;99.90
52058;DHT22;38063;53.210;6.504;2023-04-23T10:14:23;17.40;99.90
52058;DHT22;38063;53.210;6.504;2023-04-23T10:16:59;17.30;99.90
52058;DHT22;38063;53.210;6.504;2023-04-23T10:19:26;17.00;99.90
52058;DHT22;38063;53.210;6.504;2023-04-23T10:22:03;16.90;99.90
52058;DHT22;38063;53.210;6.504;2023-04-23T10:24:36;16.70;99.90
52058;DHT22;38063;53.210;6.504;2023-04-23T10:27:04;16.50;99.90
52058;DHT22;38063;53.210;6.504;2023-04-23T10:29:33;16.30;99.90
52058;DHT22;38063;53.210;6.504;2023-04-23T10:32:05;16.40;99.90
52058;DHT22;38063;53.210;6.504;2023-04-23T10:34:32;16.90;99.90
52058;DHT22;38063;53.210;6.504;2023-04-23T10:36:59;17.30;99.90
52058;DHT22;38063;53.210;6.504;2023-04-23T10:39:32;17.70;99.90
52058;DHT22;38063;53.210;6.504;2023-04-23T10:42:00;18.30;99.90
52058;DHT22;38063;53.210;6.504;2023-04-23T10:44:36;18.70;99.90
52058;DHT22;38063;53.210;6.504;2023-04-23T10:47:03;18.80;99.90
52058;DHT22;38063;53.210;6.504;2023-04-23T10:49:33;19.20;99.90
52058;DHT22;38063;53.210;6.504;2023-04-23T10:52:06;19.40;99.90
52058;DHT22;38063;53.210;6.504;2023-04-23T10:54:33;19.70;99.90
52058;DHT22;38063;53.210;6.504;2023-04-23T10:57:03;20.10;99.90
52058;DHT22;38063;53.210;6.504;2023-04-23T10:59:31;20.40;99.90
52058;DHT22;38063;53.210;6.504;2023-04-23T11:02:04;20.50;99.90
52058;DHT22;38063;53.210;6.504;2023-04-23T11:04:32;20.70;99.90
52058;DHT22;38063;53.210;6.504;2023-04-23T11:07:06;20.90;99.90
52058;DHT22;38063;53.210;6.504;2023-04-23T11:12:54;21.00;99.90
52058;DHT22;38063;53.210;6.504;2023-04-23T11:14:53;21.00;99.90
52058;DHT22;38063;53.210;6.504;2023-04-23T11:20:07;20.70;99.90
52058;DHT22;38063;53.210;6.504;2023-04-23T11:22:51;20.30;99.90
52058;DHT22;38063;53.210;6.504;2023-04-23T11:25:25;20.30;99.90
52058;DHT22;38063;53.210;6.504;2023-04-23T11:27:53;20.00;99.90
52058;DHT22;38063;53.210;6.504;2023-04-23T11:30:27;19.70;99.90
52058;DHT22;38063;53.210;6.504;2023-04-23T11:32:55;19.60;99.90
52058;DHT22;38063;53.210;6.504;2023-04-23T11:35:22;19.30;99.90
52058;DHT22;38063;53.210;6.504;2023-04-23T11:37:49;19.20;99.90
52058;DHT22;38063;53.210;6.504;2023-04-23T11:40:16;18.90;99.90
52058;DHT22;38063;53.210;6.504;2023-04-23T11:42:46;18.80;99.90
52058;DHT22;38063;53.210;6.504;2023-04-23T11:45:21;18.70;99.90
52058;DHT22;38063;53.210;6.504;2023-04-23T11:47:48;18.60;99.90
52058;DHT22;38063;53.210;6.504;2023-04-23T11:50:19;18.50;99.90
52058;DHT22;38063;53.210;6.504;2023-04-23T11:52:45;18.50;99.90
52058;DHT22;38063;53.210;6.504;2023-04-23T11:55:11;18.50;99.90
52058;DHT22;38063;53.210;6.504;2023-04-23T11:57:45;18.50;99.90
52058;DHT22;38063;53.210;6.504;2023-04-23T12:00:22;18.50;99.90
52058;DHT22;38063;53.210;6.504;2023-04-23T12:02:58;18.50;99.90
52058;DHT22;38063;53.210;6.504;2023-04-23T12:07:53;18.40;99.90
52058;DHT22;38063;53.210;6.504;2023-04-23T12:10:20;18.40;99.90
52058;DHT22;38063;53.210;6.504;2023-04-23T12:12:52;18.60;99.90
52058;DHT22;38063;53.210;6.504;2023-04-23T12:15:19;18.90;99.90
52058;DHT22;38063;53.210;6.504;2023-04-23T12:17:52;19.20;99.90
52058;DHT22;38063;53.210;6.504;2023-04-23T12:20:32;19.50;99.90
52058;DHT22;38063;53.210;6.504;2023-04-23T12:23:03;19.80;99.90
52058;DHT22;38063;53.210;6.504;2023-04-23T12:25:29;20.00;99.60
52058;DHT22;38063;53.210;6.504;2023-04-23T12:27:58;20.20;98.70
52058;DHT22;38063;53.210;6.504;2023-04-23T12:30:28;20.20;97.80
52058;DHT22;38063;53.210;6.504;2023-04-23T12:33:00;20.30;97.50
52058;DHT22;38063;53.210;6.504;2023-04-23T12:38:05;20.00;97.70
52058;DHT22;38063;53.210;6.504;2023-04-23T12:40:31;19.80;97.60
52058;DHT22;38063;53.210;6.504;2023-04-23T12:42:57;19.70;97.80
52058;DHT22;38063;53.210;6.504;2023-04-23T12:45:23;19.50;97.70
52058;DHT22;38063;53.210;6.504;2023-04-23T12:47:48;19.40;97.50
52058;DHT22;38063;53.210;6.504;2023-04-23T12:50:14;19.40;97.10
52058;DHT22;38063;53.210;6.504;2023-04-23T12:52:41;19.30;96.80
52058;DHT22;38063;53.210;6.504;2023-04-23T12:55:07;19.40;97.20
52058;DHT22;38063;53.210;6.504;2023-04-23T12:57:33;19.50;96.90
52058;DHT22;38063;53.210;6.504;2023-04-23T12:59:58;19.50;96.70
52058;DHT22;38063;53.210;6.504;2023-04-23T13:02:24;19.50;96.70
52058;DHT22;38063;53.210;6.504;2023-04-23T13:04:50;19.50;96.60
52058;DHT22;38063;53.210;6.504;2023-04-23T13:07:16;19.50;96.60
52058;DHT22;38063;53.210;6.504;2023-04-23T13:09:42;19.50;96.50
52058;DHT22;38063;53.210;6.504;2023-04-23T13:12:07;19.50;96.50
52058;DHT22;38063;53.210;6.504;2023-04-23T13:14:33;19.40;96.30
52058;DHT22;38063;53.210;6.504;2023-04-23T13:16:59;19.30;95.80
52058;DHT22;38063;53.210;6.504;2023-04-23T13:19:25;19.20;95.30
52058;DHT22;38063;53.210;6.504;2023-04-23T13:21:50;19.20;95.20
52058;DHT22;38063;53.210;6.504;2023-04-23T13:24:16;19.20;95.00
52058;DHT22;38063;53.210;6.504;2023-04-23T13:26:42;19.10;94.70
52058;DHT22;38063;53.210;6.504;2023-04-23T13:29:07;19.20;94.80
52058;DHT22;38063;53.210;6.504;2023-04-23T13:31:33;19.30;94.20
52058;DHT22;38063;53.210;6.504;2023-04-23T13:33:59;19.30;94.00
52058;DHT22;38063;53.210;6.504;2023-04-23T13:36:27;19.40;93.90
52058;DHT22;38063;53.210;6.504;2023-04-23T13:38:52;19.60;93.90
52058;DHT22;38063;53.210;6.504;2023-04-23T13:41:18;19.60;94.10
52058;DHT22;38063;53.210;6.504;2023-04-23T13:43:44;19.70;93.70
52058;DHT22;38063;53.210;6.504;2023-04-23T13:46:09;19.80;93.60
52058;DHT22;38063;53.210;6.504;2023-04-23T13:48:35;19.90;94.30
52058;DHT22;38063;53.210;6.504;2023-04-23T13:51:01;20.00;94.30
52058;DHT22;38063;53.210;6.504;2023-04-23T13:53:27;20.10;94.90
52058;DHT22;38063;53.210;6.504;2023-04-23T13:55:54;20.10;94.90
52058;DHT22;38063;53.210;6.504;2023-04-23T13:58:20;20.10;94.70
52058;DHT22;38063;53.210;6.504;2023-04-23T14:00:46;20.00;94.50
52058;DHT22;38063;53.210;6.504;2023-04-23T14:03:12;19.90;94.50
52058;DHT22;38063;53.210;6.504;2023-04-23T14:05:38;19.80;95.20
52058;DHT22;38063;53.210;6.504;2023-04-23T14:08:04;19.80;95.40
52058;DHT22;38063;53.210;6.504;2023-04-23T14:10:30;19.90;95.30
52058;DHT22;38063;53.210;6.504;2023-04-23T14:12:56;20.00;94.70
52058;DHT22;38063;53.210;6.504;2023-04-23T14:15:21;20.00;94.00
52058;DHT22;38063;53.210;6.504;2023-04-23T14:17:47;20.20;93.80
52058;DHT22;38063;53.210;6.504;2023-04-23T14:20:14;20.30;93.80
52058;DHT22;38063;53.210;6.504;2023-04-23T14:22:40;20.50;93.80
52058;DHT22;38063;53.210;6.504;2023-04-23T14:25:14;20.60;92.70
52058;DHT22;38063;53.210;6.504;2023-04-23T14:27:45;20.70;92.40
52058;DHT22;38063;53.210;6.504;2023-04-23T14:30:17;20.80;93.80
52058;DHT22;38063;53.210;6.504;2023-04-23T14:32:43;20.80;92.70
52058;DHT22;38063;53.210;6.504;2023-04-23T14:35:14;20.70;92.30
52058;DHT22;38063;53.210;6.504;2023-04-23T14:37:41;20.50;92.10
52058;DHT22;38063;53.210;6.504;2023-04-23T14:40:13;20.30;92.00
52058;DHT22;38063;53.210;6.504;2023-04-23T14:42:47;20.20;91.60
52058;DHT22;38063;53.210;6.504;2023-04-23T14:45:15;20.00;91.90
52058;DHT22;38063;53.210;6.504;2023-04-23T14:47:44;19.90;91.90
52058;DHT22;38063;53.210;6.504;2023-04-23T14:50:14;19.70;92.10
52058;DHT22;38063;53.210;6.504;2023-04-23T14:52:40;19.60;92.00
52058;DHT22;38063;53.210;6.504;2023-04-23T14:55:09;19.50;92.20
52058;DHT22;38063;53.210;6.504;2023-04-23T14:57:35;19.40;92.20
52058;DHT22;38063;53.210;6.504;2023-04-23T15:00:01;19.40;92.50
52058;DHT22;38063;53.210;6.504;2023-04-23T15:02:26;19.40;92.80
52058;DHT22;38063;53.210;6.504;2023-04-23T15:04:53;19.40;92.80
52058;DHT22;38063;53.210;6.504;2023-04-23T15:07:19;19.50;92.60
52058;DHT22;38063;53.210;6.504;2023-04-23T15:09:45;19.40;92.50
52058;DHT22;38063;53.210;6.504;2023-04-23T15:15:19;19.30;92.20
52058;DHT22;38063;53.210;6.504;2023-04-23T15:17:46;19.30;92.50
52058;DHT22;38063;53.210;6.504;2023-04-23T15:20:12;19.30;92.80
52058;DHT22;38063;53.210;6.504;2023-04-23T15:22:38;19.30;92.40
52058;DHT22;38063;53.210;6.504;2023-04-23T15:25:04;19.30;92.10
52058;DHT22;38063;53.210;6.504;2023-04-23T15:27:30;19.30;91.70
52058;DHT22;38063;53.210;6.504;2023-04-23T15:29:56;19.20;91.50
52058;DHT22;38063;53.210;6.504;2023-04-23T15:32:21;19.20;91.50
52058;DHT22;38063;53.210;6.504;2023-04-23T15:34:48;19.20;91.50
52058;DHT22;38063;53.210;6.504;2023-04-23T15:37:13;19.10;91.50
52058;DHT22;38063;53.210;6.504;2023-04-23T15:39:40;19.10;91.60
52058;DHT22;38063;53.210;6.504;2023-04-23T15:42:06;19.10;91.70
52058;DHT22;38063;53.210;6.504;2023-04-23T15:44:32;18.90;91.70
52058;DHT22;38063;53.210;6.504;2023-04-23T15:46:57;18.90;92.20
52058;DHT22;38063;53.210;6.504;2023-04-23T15:49:26;18.80;92.70
52058;DHT22;38063;53.210;6.504;2023-04-23T15:51:51;18.70;92.90